Time;durP1;ratioP1;P1;durP2;ratioP2;P2;SDS_P1;SDS_P2;PMS_P1;PMS_P2;Temp;Humidity;BMP_temperature;BMP_pressure;BME280_temperature;BME280_humidity;BME280_pressure;Samples;Min_cycle;Max_cycle;Signal;HPM_P1;HPM_P2
2023/07/11 01:03:47;;;;;;;19.40;8.85;;;21.70;99.90;;;;;;4995964;28;20058;-94
2023/07/11 01:06:17;;;;;;;20.13;9.77;;;21.70;99.90;;;;;;4964938;28;20034;-91
2023/07/11 01:08:50;;;;;;;27.85;9.90;;;21.70;99.90;;;;;;4965912;28;20060;-94
2023/07/11 01:11:17;;;;;;;38.92;11.15;;;21.70;99.90;;;;;;4964912;28;20049;-92
2023/07/11 01:13:44;;;;;;;29.90;9.88;;;21.70;99.90;;;;;;4961889;28;20023;-93
2023/07/11 01:16:11;;;;;;;46.13;9.77;;;21.70;99.90;;;;;;4977603;28;20452;-92
2023/07/11 01:18:38;;;;;;;32.38;10.73;;;21.70;99.90;;;;;;4978055;28;20029;-93
2023/07/11 01:21:05;;;;;;;35.28;11.82;;;21.80;99.90;;;;;;4977779;28;20105;-93
2023/07/11 01:23:33;;;;;;;37.28;11.25;;;21.90;99.90;;;;;;4997564;28;20015;-94
2023/07/11 01:26:02;;;;;;;36.08;12.23;;;21.90;99.90;;;;;;4971036;28;20027;-92
2023/07/11 01:28:28;;;;;;;42.60;14.35;;;21.90;99.90;;;;;;4947277;28;20392;-93
2023/07/11 01:30:55;;;;;;;39.50;12.88;;;21.90;99.90;;;;;;4947300;28;20038;-93
2023/07/11 01:33:24;;;;;;;40.70;12.35;;;21.90;99.90;;;;;;4947358;28;20032;-93
2023/07/11 01:35:52;;;;;;;37.95;11.32;;;21.90;99.90;;;;;;4945703;28;20041;-93
2023/07/11 01:38:20;;;;;;;39.05;12.15;;;21.90;99.90;;;;;;4961590;28;20419;-93
2023/07/11 01:40:48;;;;;;;51.47;11.13;;;21.90;99.90;;;;;;4961237;28;20074;-93
2023/07/11 01:43:16;;;;;;;35.60;11.10;;;21.80;99.90;;;;;;4945152;28;20054;-94
2023/07/11 01:45:43;;;;;;;49.20;12.77;;;21.80;99.90;;;;;;4961459;28;20041;-91
2023/07/11 01:48:10;;;;;;;35.92;10.15;;;21.80;99.90;;;;;;4945833;28;20063;-92
2023/07/11 01:50:36;;;;;;;31.15;9.70;;;21.80;99.90;;;;;;4945321;28;20030;-93
2023/07/11 01:53:03;;;;;;;26.80;9.95;;;21.80;99.90;;;;;;4961006;28;20031;-94
2023/07/11 01:55:32;;;;;;;40.72;10.30;;;21.80;99.90;;;;;;4945083;28;20089;-92
2023/07/11 01:57:59;;;;;;;37.53;10.40;;;21.80;99.90;;;;;;4944925;28;20503;-92
2023/07/11 02:00:25;;;;;;;38.95;10.30;;;21.80;99.90;;;;;;4944969;28;20034;-93
2023/07/11 02:02:52;;;;;;;29.20;9.30;;;21.80;99.90;;;;;;4959478;28;20042;-92
2023/07/11 02:05:24;;;;;;;44.42;10.77;;;21.80;99.90;;;;;;4960945;28;20094;-92
2023/07/11 02:07:51;;;;;;;39.08;10.05;;;21.80;99.90;;;;;;4944631;28;20404;-91
2023/07/11 02:10:17;;;;;;;34.65;10.80;;;21.80;99.90;;;;;;4944665;28;20142;-93
2023/07/11 02:12:43;;;;;;;26.08;11.00;;;21.90;99.90;;;;;;4944777;28;20034;-93
2023/07/11 02:15:11;;;;;;;39.00;11.57;;;22.00;99.90;;;;;;4944421;28;20074;-93
2023/07/11 02:17:38;;;;;;;46.30;10.05;;;22.10;99.90;;;;;;4944560;28;20038;-95
2023/07/11 02:20:06;;;;;;;33.33;10.32;;;22.00;99.90;;;;;;4944526;28;20031;-93
2023/07/11 02:22:32;;;;;;;41.15;12.13;;;22.00;99.90;;;;;;4944412;28;20100;-92
2023/07/11 02:24:59;;;;;;;43.92;12.85;;;22.00;99.90;;;;;;4944300;28;20023;-92
2023/07/11 02:27:25;;;;;;;29.48;11.35;;;22.00;99.90;;;;;;4944402;28;20488;-93
2023/07/11 02:29:51;;;;;;;47.35;12.38;;;22.00;99.90;;;;;;4944271;28;20023;-93
2023/07/11 02:32:21;;;;;;;33.97;11.70;;;22.00;99.90;;;;;;4944524;28;20070;-93
2023/07/11 02:34:47;;;;;;;35.53;11.85;;;21.90;99.90;;;;;;4944050;28;20027;-93
2023/07/11 02:37:13;;;;;;;36.50;11.85;;;22.00;99.90;;;;;;4944040;28;20038;-94
2023/07/11 02:39:40;;;;;;;26.33;11.07;;;21.90;99.90;;;;;;4945083;28;20019;-93
2023/07/11 02:42:06;;;;;;;36.00;11.85;;;21.90;99.90;;;;;;4946005;28;20031;-92
2023/07/11 02:44:33;;;;;;;54.13;12.82;;;22.00;99.90;;;;;;4960676;28;20054;-92
2023/07/11 02:46:59;;;;;;;41.13;10.32;;;22.00;99.90;;;;;;4960836;28;20031;-92
2023/07/11 02:49:25;;;;;;;44.38;12.88;;;21.90;99.90;;;;;;4945957;28;20069;-94
2023/07/11 02:51:52;;;;;;;30.15;11.98;;;21.90;99.90;;;;;;4943995;28;20093;-93
2023/07/11 02:54:18;;;;;;;31.75;11.55;;;21.90;99.90;;;;;;4944003;28;20023;-94
2023/07/11 02:56:44;;;;;;;58.97;11.95;;;21.90;99.90;;;;;;4943941;28;20035;-93
2023/07/11 02:59:11;;;;;;;28.95;10.30;;;21.90;99.90;;;;;;4943791;28;20030;-92
2023/07/11 03:01:38;;;;;;;31.95;12.80;;;21.90;99.90;;;;;;4943607;28;20030;-92
2023/07/11 03:04:04;;;;;;;29.38;11.30;;;21.90;99.90;;;;;;4944305;28;20591;-92
2023/07/11 03:06:31;;;;;;;29.60;10.68;;;21.90;99.90;;;;;;4963638;28;20042;-91
2023/07/11 03:08:57;;;;;;;39.05;12.45;;;21.80;99.90;;;;;;4947443;28;20035;-92
2023/07/11 03:11:23;;;;;;;30.98;11.93;;;21.80;99.90;;;;;;4944596;28;20039;-91
2023/07/11 03:13:50;;;;;;;29.15;11.63;;;21.90;99.90;;;;;;4943763;28;20026;-91
2023/07/11 03:16:16;;;;;;;28.52;11.05;;;21.90;99.90;;;;;;4945101;28;20462;-91
2023/07/11 03:18:42;;;;;;;34.70;12.15;;;21.90;99.90;;;;;;4943768;28;20026;-92
2023/07/11 03:21:09;;;;;;;36.60;13.75;;;21.90;99.90;;;;;;4943558;28;20035;-91
2023/07/11 03:23:35;;;;;;;43.40;12.68;;;21.90;99.90;;;;;;4943478;28;20030;-92
2023/07/11 03:26:02;;;;;;;31.77;12.93;;;22.00;99.90;;;;;;4943668;28;20088;-91
2023/07/11 03:28:28;;;;;;;32.42;12.80;;;22.00;99.90;;;;;;4943496;28;20023;-91
2023/07/11 03:30:55;;;;;;;37.90;13.50;;;22.00;99.90;;;;;;4960575;28;20019;-92
2023/07/11 03:33:21;;;;;;;39.78;12.75;;;22.10;99.90;;;;;;4951932;28;20030;-93
2023/07/11 03:35:50;;;;;;;46.33;13.35;;;22.10;99.90;;;;;;4943917;28;20026;-93
2023/07/11 03:38:17;;;;;;;41.95;12.45;;;22.00;99.90;;;;;;4943730;28;20030;-95
2023/07/11 03:40:44;;;;;;;46.72;13.55;;;22.10;99.90;;;;;;4944458;28;20026;-92
2023/07/11 03:43:10;;;;;;;42.80;12.38;;;22.20;99.90;;;;;;4944360;28;20023;-92
2023/07/11 03:45:41;;;;;;;57.35;15.50;;;22.20;99.90;;;;;;4943827;28;20035;-92
2023/07/11 03:48:08;;;;;;;37.63;14.50;;;22.20;99.90;;;;;;4942985;28;20027;-93
2023/07/11 03:50:34;;;;;;;32.45;12.18;;;22.30;99.90;;;;;;4943501;28;20035;-93
2023/07/11 03:53:00;;;;;;;38.30;14.30;;;22.30;99.90;;;;;;4942910;28;20058;-93
2023/07/11 03:55:29;;;;;;;31.17;12.63;;;22.40;99.90;;;;;;4943050;28;20066;-94
2023/07/11 03:57:55;;;;;;;40.00;13.18;;;22.40;99.90;;;;;;4942727;28;20023;-93
2023/07/11 04:00:22;;;;;;;27.15;11.55;;;22.50;99.90;;;;;;4942786;28;20038;-93
2023/07/11 04:02:50;;;;;;;28.25;11.68;;;22.50;99.90;;;;;;4942310;28;20058;-93
2023/07/11 04:05:16;;;;;;;26.10;12.25;;;22.60;99.90;;;;;;4942691;28;20038;-93
2023/07/11 04:07:43;;;;;;;30.48;11.38;;;22.60;99.90;;;;;;4942437;28;20023;-92
2023/07/11 04:10:12;;;;;;;29.92;11.55;;;22.50;99.90;;;;;;4942152;28;20058;-93
2023/07/11 04:12:39;;;;;;;21.40;10.98;;;22.70;99.90;;;;;;4942076;28;20030;-93
2023/07/11 04:15:09;;;;;;;23.90;11.77;;;22.90;99.90;;;;;;4944708;28;20023;-93
2023/07/11 04:17:36;;;;;;;18.13;9.65;;;22.80;99.90;;;;;;4942406;28;20166;-92
2023/07/11 04:20:03;;;;;;;21.70;11.35;;;22.70;99.90;;;;;;4941979;28;20030;-92
2023/07/11 04:22:30;;;;;;;17.13;9.45;;;22.70;99.90;;;;;;4942390;28;20027;-92
2023/07/11 04:24:57;;;;;;;17.77;9.18;;;22.70;99.90;;;;;;4957896;28;20030;-92
2023/07/11 04:27:25;;;;;;;15.23;8.27;;;22.70;99.90;;;;;;4957511;28;20054;-93
2023/07/11 04:29:52;;;;;;;15.95;8.85;;;22.80;99.90;;;;;;4958199;28;20027;-93
2023/07/11 04:32:18;;;;;;;14.50;8.73;;;22.80;99.90;;;;;;4958864;28;20504;-94
2023/07/11 04:34:45;;;;;;;12.60;7.50;;;22.80;99.90;;;;;;4948572;28;20033;-92
2023/07/11 04:37:11;;;;;;;12.68;7.00;;;22.90;99.90;;;;;;4981337;28;20050;-91
2023/07/11 04:39:40;;;;;;;11.70;7.22;;;23.00;99.90;;;;;;4960970;28;20468;-91
2023/07/11 04:42:06;;;;;;;13.45;7.53;;;23.10;99.90;;;;;;4957992;28;20117;-94
2023/07/11 04:44:33;;;;;;;14.00;6.85;;;23.20;99.90;;;;;;4957762;28;20031;-92
2023/07/11 04:47:00;;;;;;;13.30;6.85;;;23.30;99.90;;;;;;4942243;28;20034;-94
2023/07/11 04:49:27;;;;;;;13.65;7.13;;;23.80;99.90;;;;;;4957815;28;20042;-93
2023/07/11 04:51:54;;;;;;;10.98;7.82;;;24.30;99.90;;;;;;4957688;28;20093;-93
2023/07/11 04:54:20;;;;;;;9.38;7.68;;;25.60;99.90;;;;;;4958084;28;20023;-93
2023/07/11 04:56:55;;;;;;;16.88;10.05;;;27.50;99.90;;;;;;4958324;28;20041;-93
2023/07/11 04:59:22;;;;;;;13.65;12.07;;;29.80;99.90;;;;;;4941770;28;20031;-92
2023/07/11 05:01:49;;;;;;;17.92;16.45;;;31.50;99.90;;;;;;4941746;28;20558;-92
2023/07/11 05:04:15;;;;;;;21.48;19.63;;;32.80;99.90;;;;;;4942063;28;20443;-94
2023/07/11 05:06:42;;;;;;;21.02;19.23;;;33.40;99.90;;;;;;4942252;28;20034;-92
2023/07/11 05:09:09;;;;;;;20.92;18.80;;;33.70;99.90;;;;;;4941948;28;20035;-93
2023/07/11 05:11:36;;;;;;;21.70;19.65;;;34.60;99.90;;;;;;4975142;28;20050;-92
2023/07/11 05:14:04;;;;;;;21.48;19.67;;;36.20;99.90;;;;;;4975529;28;20023;-94
2023/07/11 05:16:31;;;;;;;21.00;19.23;;;35.10;99.90;;;;;;4942147;28;20030;-94
2023/07/11 05:19:01;;;;;;;20.80;19.17;;;35.10;99.90;;;;;;4942367;28;20030;-93
2023/07/11 05:21:28;;;;;;;21.05;18.60;;;34.30;99.90;;;;;;4943324;28;20079;-96
2023/07/11 05:23:57;;;;;;;21.70;19.80;;;34.00;99.90;;;;;;4954279;28;20507;-92
2023/07/11 05:26:24;;;;;;;21.60;19.42;;;34.60;99.90;;;;;;4957668;28;20109;-92
2023/07/11 05:28:51;;;;;;;21.48;19.67;;;33.80;99.90;;;;;;4941875;28;20027;-93
2023/07/11 05:31:18;;;;;;;22.02;20.02;;;33.30;99.90;;;;;;4941603;28;20055;-94
2023/07/11 05:33:45;;;;;;;21.10;19.35;;;32.70;99.90;;;;;;4941939;28;20114;-93
2023/07/11 05:36:35;;;;;;;20.92;19.17;;;32.80;99.90;;;;;;4942342;28;20038;-92
2023/07/11 05:39:14;;;;;;;20.98;19.13;;;31.60;99.90;;;;;;4961232;28;20027;-93
2023/07/11 05:41:49;;;;;;;20.38;18.80;;;31.50;99.90;;;;;;4945696;28;20030;-94
2023/07/11 05:44:17;;;;;;;21.55;19.95;;;32.20;99.90;;;;;;4947812;28;20027;-92
2023/07/11 05:46:45;;;;;;;20.80;19.10;;;32.00;99.90;;;;;;4961652;28;20031;-95
2023/07/11 05:49:11;;;;;;;21.23;19.50;;;32.80;99.90;;;;;;4944960;28;20026;-94
2023/07/11 05:51:38;;;;;;;20.85;19.27;;;32.30;99.90;;;;;;4945322;28;20036;-94
2023/07/11 05:54:05;;;;;;;20.63;19.15;;;31.50;99.90;;;;;;4944759;28;20526;-96
2023/07/11 05:56:32;;;;;;;21.08;19.13;;;31.00;99.90;;;;;;4944660;28;20030;-91
2023/07/11 05:58:59;;;;;;;20.73;18.92;;;31.70;99.90;;;;;;4944104;28;20090;-91
2023/07/11 06:01:27;;;;;;;21.20;19.40;;;31.90;99.90;;;;;;4944242;28;20038;-91
2023/07/11 06:04:14;;;;;;;20.90;19.40;;;32.00;99.90;;;;;;4944214;28;20050;-93
2023/07/11 06:06:41;;;;;;;21.27;19.38;;;32.80;99.90;;;;;;4960649;28;20146;-92
2023/07/11 06:09:18;;;;;;;22.30;20.30;;;34.00;99.90;;;;;;4944833;28;20030;-92
2023/07/11 06:11:48;;;;;;;24.27;22.35;;;34.70;99.90;;;;;;4944823;28;20043;-92
2023/07/11 06:14:17;;;;;;;24.40;22.50;;;35.20;99.90;;;;;;4961170;28;20026;-92
2023/07/11 06:16:44;;;;;;;25.05;23.25;;;34.90;99.90;;;;;;4946800;28;20027;-92
2023/07/11 06:19:11;;;;;;;24.48;22.20;;;34.50;99.90;;;;;;4944951;28;20484;-92
2023/07/11 06:21:38;;;;;;;24.98;23.10;;;34.20;99.90;;;;;;4945592;28;20042;-92
2023/07/11 06:24:05;;;;;;;25.20;23.30;;;34.20;99.90;;;;;;4945602;28;20109;-91
2023/07/11 06:26:38;;;;;;;24.75;22.95;;;34.00;99.90;;;;;;4955163;28;20102;-91
2023/07/11 06:29:05;;;;;;;25.52;23.30;;;35.40;99.90;;;;;;4957199;28;20042;-91
2023/07/11 06:31:31;;;;;;;24.83;22.92;;;36.90;99.90;;;;;;4946251;28;20054;-93
2023/07/11 06:33:58;;;;;;;24.80;23.10;;;37.30;99.90;;;;;;4944263;28;20065;-92
2023/07/11 06:36:24;;;;;;;26.13;24.05;;;36.10;99.90;;;;;;4944340;28;20093;-93
2023/07/11 06:38:51;;;;;;;26.95;25.15;;;36.40;99.90;;;;;;4944111;28;20038;-91
2023/07/11 06:41:20;;;;;;;26.88;24.70;;;35.80;99.90;;;;;;4944231;28;20446;-92
2023/07/11 06:43:47;;;;;;;26.25;24.55;;;35.40;99.90;;;;;;4944167;28;20483;-91
2023/07/11 06:46:14;;;;;;;26.75;24.98;;;35.00;99.90;;;;;;4943982;28;20053;-92
2023/07/11 06:48:41;;;;;;;26.65;24.88;;;34.60;99.90;;;;;;4943398;28;20067;-91
2023/07/11 06:51:09;;;;;;;27.25;25.25;;;34.50;99.90;;;;;;4943835;28;20488;-92
2023/07/11 06:53:36;;;;;;;26.95;24.88;;;34.90;99.90;;;;;;4945744;28;20030;-92
2023/07/11 06:56:04;;;;;;;26.70;24.92;;;34.70;99.90;;;;;;4951617;28;20050;-92
2023/07/11 06:58:31;;;;;;;26.80;24.98;;;35.10;99.90;;;;;;4944197;28;20066;-93
2023/07/11 07:01:05;;;;;;;26.77;24.83;;;35.50;99.90;;;;;;4940569;29;20027;-95
2023/07/11 07:03:33;;;;;;;27.33;25.27;;;35.40;99.90;;;;;;4924151;29;20130;-93
2023/07/11 07:06:06;;;;;;;27.02;25.33;;;34.90;99.90;;;;;;4925194;29;20062;-93
2023/07/11 07:08:33;;;;;;;27.48;25.58;;;35.00;99.90;;;;;;4956416;29;20217;-91
2023/07/11 07:11:00;;;;;;;28.33;26.27;;;35.50;99.90;;;;;;4956024;29;20492;-93
2023/07/11 07:13:27;;;;;;;28.05;26.15;;;34.30;99.90;;;;;;4955791;29;20047;-90
2023/07/11 07:15:57;;;;;;;28.08;26.05;;;34.20;99.90;;;;;;4956177;29;20110;-93
2023/07/11 07:18:27;;;;;;;28.02;26.02;;;34.80;99.90;;;;;;4958839;28;20514;-92
2023/07/11 07:20:54;;;;;;;28.02;25.92;;;36.30;99.90;;;;;;4943511;28;20035;-92
2023/07/11 07:23:21;;;;;;;27.60;25.80;;;36.10;99.90;;;;;;4943482;28;20027;-91
2023/07/11 07:25:53;;;;;;;27.17;25.42;;;35.90;99.90;;;;;;4943358;28;20031;-93
2023/07/11 07:28:20;;;;;;;28.23;26.23;;;35.90;99.90;;;;;;4943664;28;20077;-92
2023/07/11 07:30:48;;;;;;;27.38;25.35;;;36.10;99.90;;;;;;4944589;28;20093;-91
2023/07/11 07:33:15;;;;;;;27.17;25.30;;;36.50;99.90;;;;;;4950256;28;20038;-93
2023/07/11 07:35:42;;;;;;;28.10;26.00;;;36.50;99.90;;;;;;4962496;28;20054;-92
2023/07/11 07:38:10;;;;;;;27.38;25.58;;;36.20;99.90;;;;;;4981544;28;20042;-92
2023/07/11 07:40:37;;;;;;;27.52;25.70;;;37.20;99.90;;;;;;4964742;28;20094;-93
2023/07/11 07:43:04;;;;;;;28.27;26.38;;;37.10;99.90;;;;;;4942618;28;20031;-94
2023/07/11 07:45:31;;;;;;;28.17;26.08;;;38.00;99.90;;;;;;4942637;28;20030;-95
2023/07/11 07:48:01;;;;;;;28.58;26.25;;;37.80;99.90;;;;;;4942568;28;20065;-93
2023/07/11 07:50:27;;;;;;;27.48;25.58;;;36.80;99.90;;;;;;4942466;28;20090;-94
2023/07/11 07:52:54;;;;;;;27.67;25.63;;;37.80;99.90;;;;;;4942967;28;20043;-94
2023/07/11 07:55:20;;;;;;;27.95;25.85;;;37.90;99.90;;;;;;4943150;28;20099;-92
2023/07/11 07:57:47;;;;;;;27.60;25.85;;;38.30;99.90;;;;;;4943192;28;20031;-93
2023/07/11 08:00:14;;;;;;;27.23;25.55;;;37.40;99.90;;;;;;4942573;28;20114;-91
2023/07/11 08:02:50;;;;;;;27.70;25.98;;;37.50;99.90;;;;;;4959966;28;20051;-93
2023/07/11 08:05:18;;;;;;;28.45;26.45;;;37.90;99.90;;;;;;4942729;28;20039;-92
2023/07/11 08:07:45;;;;;;;27.42;25.45;;;39.00;99.40;;;;;;4942431;28;20360;-92
2023/07/11 08:10:11;;;;;;;27.60;25.77;;;37.80;99.40;;;;;;4943057;28;20038;-93
2023/07/11 08:12:38;;;;;;;27.63;25.80;;;37.50;99.80;;;;;;4958768;28;20491;-91
2023/07/11 08:15:05;;;;;;;27.80;26.00;;;37.40;99.90;;;;;;4959464;28;20026;-93
2023/07/11 08:17:31;;;;;;;28.55;26.55;;;38.40;99.40;;;;;;4963232;28;20034;-92
2023/07/11 08:19:58;;;;;;;27.85;25.95;;;39.00;97.90;;;;;;4974817;28;20102;-92
2023/07/11 08:22:27;;;;;;;27.80;25.88;;;39.40;96.70;;;;;;4963155;28;20045;-92
2023/07/11 08:24:54;;;;;;;28.52;26.25;;;40.20;96.10;;;;;;4942892;28;20027;-91
2023/07/11 08:27:20;;;;;;;28.17;26.38;;;40.10;95.30;;;;;;4958519;28;20484;-92
2023/07/11 08:29:46;;;;;;;28.23;26.00;;;39.30;95.90;;;;;;4942180;28;20038;-92
2023/07/11 08:32:15;;;;;;;28.13;26.27;;;39.60;95.60;;;;;;4957874;28;20093;-91
2023/07/11 08:34:42;;;;;;;28.20;26.13;;;38.70;96.00;;;;;;4942005;28;20118;-93
2023/07/11 08:37:09;;;;;;;28.25;26.48;;;39.30;95.60;;;;;;4941837;28;20115;-91
2023/07/11 08:39:37;;;;;;;28.08;26.10;;;38.40;95.20;;;;;;4942559;28;20031;-92
2023/07/11 08:42:20;;;;;;;28.45;26.08;;;37.60;95.50;;;;;;4942349;28;20037;-92
2023/07/11 08:44:59;;;;;;;27.63;25.83;;;37.30;95.90;;;;;;4939128;29;20125;-94
2023/07/11 08:47:33;;;;;;;27.60;25.90;;;37.50;95.60;;;;;;4938901;29;20031;-93
2023/07/11 08:50:15;;;;;;;27.58;25.80;;;38.10;95.30;;;;;;4938821;29;20039;-93
2023/07/11 08:52:45;;;;;;;27.80;25.98;;;38.10;94.90;;;;;;4955287;29;20043;-92
2023/07/11 08:55:19;;;;;;;28.20;26.30;;;38.10;95.50;;;;;;4938892;29;20393;-93
2023/07/11 08:57:54;;;;;;;27.58;25.88;;;38.50;94.50;;;;;;4954623;29;20035;-92
2023/07/11 09:00:23;;;;;;;27.38;25.58;;;38.60;93.80;;;;;;4938606;29;20110;-92
2023/07/11 09:03:32;;;;;;;28.00;26.20;;;38.30;94.50;;;;;;4938437;29;20489;-91
2023/07/11 09:06:06;;;;;;;27.67;25.67;;;38.50;94.90;;;;;;4938696;29;20034;-92
2023/07/11 09:08:36;;;;;;;27.60;25.70;;;38.40;93.80;;;;;;4954906;29;20059;-91
2023/07/11 09:11:25;;;;;;;29.40;27.50;;;38.10;94.30;;;;;;4938675;29;20027;-92
2023/07/11 09:13:56;;;;;;;29.35;27.55;;;37.10;95.30;;;;;;4958654;29;20484;-92
2023/07/11 09:17:01;;;;;;;30.20;28.30;;;38.10;93.60;;;;;;4942089;29;20086;-91
2023/07/11 09:20:39;;;;;;;29.70;27.90;;;37.20;94.90;;;;;;4943837;29;20039;-92
2023/07/11 09:29:28;;;;;;;30.40;28.50;;;36.70;94.60;;;;;;5050382;23;20045;-93
2023/07/11 09:32:01;;;;;;;29.58;27.67;;;36.60;94.90;;;;;;5004582;28;20121;-92
2023/07/11 09:34:34;;;;;;;29.85;27.92;;;36.60;95.90;;;;;;5007852;28;20125;-92
2023/07/11 09:37:17;;;;;;;30.98;28.85;;;36.40;96.20;;;;;;5036604;28;20040;-92
2023/07/11 09:39:52;;;;;;;30.90;28.80;;;35.60;96.50;;;;;;4994514;28;20026;-92
2023/07/11 09:42:40;;;;;;;29.98;28.17;;;35.70;97.20;;;;;;4969726;28;20038;-92
2023/07/11 09:45:13;;;;;;;29.58;27.75;;;35.90;97.20;;;;;;4975510;28;20034;-93
2023/07/11 09:47:42;;;;;;;30.05;27.85;;;35.70;97.00;;;;;;4984063;28;20041;-93
2023/07/11 09:50:31;;;;;;;29.88;27.90;;;35.60;96.30;;;;;;4980619;28;20030;-92
2023/07/11 09:53:01;;;;;;;29.95;28.00;;;34.70;96.30;;;;;;4981156;28;20053;-92
2023/07/11 09:55:35;;;;;;;29.05;27.30;;;34.90;95.40;;;;;;4983828;28;20116;-90
2023/07/11 09:58:02;;;;;;;30.10;27.90;;;34.90;95.80;;;;;;5000275;28;20061;-93
2023/07/11 10:00:29;;;;;;;30.52;28.27;;;34.20;96.00;;;;;;4999885;28;20026;-93
2023/07/11 10:03:01;;;;;;;29.38;27.48;;;34.00;96.20;;;;;;5015921;28;20061;-93
2023/07/11 10:05:27;;;;;;;30.35;28.25;;;33.80;96.20;;;;;;5007794;28;20022;-92
2023/07/11 10:08:03;;;;;;;30.25;28.25;;;34.00;96.30;;;;;;4983703;28;20025;-92
2023/07/11 10:10:33;;;;;;;29.63;27.52;;;33.90;96.10;;;;;;4999755;28;20120;-91
2023/07/11 10:13:10;;;;;;;29.52;27.63;;;34.20;94.90;;;;;;4985282;28;20033;-91
2023/07/11 10:15:37;;;;;;;30.33;28.40;;;34.00;95.80;;;;;;4988017;28;20042;-92
2023/07/11 10:18:04;;;;;;;30.00;28.02;;;34.20;96.80;;;;;;4976643;28;20042;-94
2023/07/11 10:20:31;;;;;;;29.88;28.05;;;33.60;98.10;;;;;;4965406;28;20128;-94
2023/07/11 10:23:05;;;;;;;29.45;27.58;;;33.60;98.30;;;;;;4963282;28;20504;-92
2023/07/11 10:25:32;;;;;;;30.05;28.00;;;33.70;98.70;;;;;;4962833;28;20035;-93
2023/07/11 10:28:18;;;;;;;30.52;28.63;;;33.90;98.00;;;;;;4963208;28;20065;-94
2023/07/11 10:30:45;;;;;;;29.65;27.65;;;34.10;98.90;;;;;;4963072;28;20038;-91
2023/07/11 10:33:34;;;;;;;29.52;27.52;;;33.80;99.10;;;;;;4964113;28;20471;-92
2023/07/11 10:36:19;;;;;;;29.83;27.92;;;33.70;98.80;;;;;;4963854;28;20026;-93
2023/07/11 10:38:51;;;;;;;29.67;27.58;;;33.70;98.70;;;;;;4964812;28;20046;-91
2023/07/11 10:41:33;;;;;;;29.45;27.52;;;33.70;99.90;;;;;;4965096;28;20033;-93
2023/07/11 10:44:03;;;;;;;28.67;26.80;;;33.90;99.90;;;;;;4984436;28;20116;-94
2023/07/11 10:46:42;;;;;;;28.65;26.92;;;33.90;99.90;;;;;;4964922;28;20029;-91
2023/07/11 10:49:15;;;;;;;29.08;26.88;;;33.80;99.90;;;;;;4980174;28;20030;-93
2023/07/11 10:52:11;;;;;;;28.88;27.08;;;33.70;99.80;;;;;;4980573;28;20038;-93
2023/07/11 10:54:49;;;;;;;29.42;27.58;;;34.00;99.40;;;;;;4953182;29;20038;-95
2023/07/11 10:57:31;;;;;;;29.10;27.15;;;34.00;99.50;;;;;;4957883;28;20118;-93
2023/07/11 10:59:57;;;;;;;29.35;27.30;;;34.30;99.90;;;;;;4943605;28;20134;-94
2023/07/11 11:02:46;;;;;;;28.48;26.67;;;33.80;99.90;;;;;;4958942;28;20031;-93
2023/07/11 11:05:48;;;;;;;29.35;27.38;;;34.40;98.90;;;;;;4958695;28;20039;-93
2023/07/11 11:08:37;;;;;;;29.80;27.77;;;34.10;98.70;;;;;;4958928;28;20095;-93
2023/07/11 11:11:36;;;;;;;28.98;26.83;;;34.30;98.30;;;;;;4944610;28;20061;-93
2023/07/11 11:14:16;;;;;;;29.75;27.45;;;33.70;99.30;;;;;;4945195;28;20043;-93
2023/07/11 11:16:52;;;;;;;28.58;26.77;;;33.40;98.70;;;;;;4963461;28;20145;-94
2023/07/11 11:19:24;;;;;;;29.38;27.38;;;33.60;99.00;;;;;;4959384;28;20567;-92
2023/07/11 11:22:05;;;;;;;29.88;27.88;;;33.30;98.50;;;;;;4954392;28;20037;-95
2023/07/11 11:24:54;;;;;;;29.83;27.67;;;33.50;99.00;;;;;;4972663;28;20027;-94
2023/07/11 11:27:33;;;;;;;30.48;28.45;;;33.80;97.90;;;;;;5018332;28;20033;-93
2023/07/11 11:30:27;;;;;;;30.15;27.95;;;34.30;98.10;;;;;;5020038;28;20081;-92
2023/07/11 11:33:09;;;;;;;;;;;34.00;97.40;;;;;;5021385;28;20038;-93
2023/07/11 11:35:47;;;;;;;29.92;27.77;;;34.20;97.70;;;;;;5000376;28;19909;-93
2023/07/11 11:38:32;;;;;;;30.40;28.30;;;34.00;97.90;;;;;;4981417;28;20037;-95
2023/07/11 11:41:03;;;;;;;30.60;28.17;;;34.10;98.20;;;;;;4981347;28;20069;-93
2023/07/11 11:43:29;;;;;;;29.77;27.77;;;34.00;98.20;;;;;;4979328;28;20030;-95
2023/07/11 11:45:58;;;;;;;29.60;27.60;;;33.90;97.80;;;;;;4978899;28;20073;-94
2023/07/11 11:48:28;;;;;;;30.00;28.00;;;34.20;97.80;;;;;;4978673;28;20554;-94
2023/07/11 11:50:56;;;;;;;29.08;27.17;;;34.10;97.50;;;;;;4978924;28;20106;-93
2023/07/11 11:53:43;;;;;;;30.23;28.33;;;34.20;96.80;;;;;;4995274;28;20030;-94
2023/07/11 11:56:19;;;;;;;29.73;27.75;;;33.90;96.40;;;;;;4995252;28;20032;-93
2023/07/11 11:59:10;;;;;;;29.52;27.63;;;34.00;96.50;;;;;;4981414;28;20045;-94
2023/07/11 12:01:53;;;;;;;30.05;28.00;;;33.90;97.60;;;;;;4998143;28;20030;-93
2023/07/11 12:04:35;;;;;;;30.25;28.20;;;34.10;98.50;;;;;;4999004;28;20523;-93
2023/07/11 12:10:14;;;;;;;29.95;27.75;;;33.20;98.70;;;;;;5054575;23;20058;-93
2023/07/11 12:13:21;;;;;;;29.67;27.77;;;33.50;98.60;;;;;;4973908;23;20043;-94
2023/07/11 12:15:51;;;;;;;30.13;28.23;;;33.60;98.50;;;;;;4959000;28;20042;-95
2023/07/11 12:18:48;;;;;;;30.15;27.80;;;33.90;98.40;;;;;;4943354;28;20030;-94
2023/07/11 12:21:28;;;;;;;29.02;27.35;;;33.80;98.10;;;;;;4951547;29;20066;-93
2023/07/11 12:24:23;;;;;;;29.88;27.88;;;33.80;98.90;;;;;;4951342;29;20453;-93
2023/07/11 12:26:54;;;;;;;30.50;28.38;;;33.70;98.60;;;;;;4927830;29;20035;-94
2023/07/11 12:29:37;;;;;;;30.13;28.13;;;33.70;98.30;;;;;;4925826;29;20039;-93
2023/07/11 12:32:35;;;;;;;29.05;27.15;;;33.80;98.10;;;;;;4941491;29;20039;-94
2023/07/11 12:35:05;;;;;;;29.23;27.40;;;33.80;98.40;;;;;;4922466;29;20122;-94
2023/07/11 12:37:48;;;;;;;29.50;27.60;;;33.80;98.40;;;;;;4906557;29;20040;-93
2023/07/11 12:40:37;;;;;;;29.65;27.75;;;33.90;97.20;;;;;;4922334;29;20032;-93
2023/07/11 12:43:33;;;;;;;30.45;27.80;;;33.90;97.20;;;;;;4922401;29;20123;-93
2023/07/11 12:46:26;;;;;;;29.33;27.42;;;34.00;96.80;;;;;;4907149;29;20031;-92
2023/07/11 12:49:10;;;;;;;29.73;27.35;;;34.20;95.90;;;;;;4915981;29;20031;-94
2023/07/11 19:10:22;;;;;;;23.10;21.38;;;26.80;99.90;;;;;;5121020;23;20054;-93
2023/07/11 19:12:56;;;;;;;24.30;21.92;;;26.70;99.90;;;;;;4985849;28;20191;-93
2023/07/11 19:15:25;;;;;;;27.58;20.15;;;26.60;99.90;;;;;;4983695;28;20041;-80
2023/07/11 19:18:06;;;;;;;19.75;18.27;;;26.60;99.90;;;;;;4977807;28;20459;-76
2023/07/11 19:20:46;;;;;;;20.60;18.83;;;26.60;99.90;;;;;;5001104;28;20081;-92
2023/07/11 19:23:25;;;;;;;20.75;18.75;;;26.50;99.90;;;;;;4979607;28;20027;-93
2023/07/11 21:28:29;;;;;;;21.38;19.45;;;24.20;99.90;;;;;;6048881;23;20025;-72
2023/07/11 21:30:59;;;;;;;24.40;20.02;;;24.20;99.90;;;;;;4957840;29;20369;-83
2023/07/11 21:33:26;;;;;;;21.63;19.58;;;24.10;99.90;;;;;;4925569;29;20031;-82
2023/07/11 21:35:57;;;;;;;22.05;20.05;;;24.10;99.90;;;;;;4926018;29;20027;-85
2023/07/11 21:38:29;;;;;;;21.52;19.73;;;24.00;99.90;;;;;;4930085;28;20114;-86
2023/07/11 21:40:59;;;;;;;23.42;19.50;;;24.00;99.90;;;;;;4925883;29;20392;-86
2023/07/11 21:43:26;;;;;;;21.23;19.23;;;23.90;99.90;;;;;;4941567;29;20031;-84
2023/07/11 21:45:54;;;;;;;20.10;18.50;;;23.80;99.90;;;;;;4925852;29;20052;-84
2023/07/11 21:48:27;;;;;;;19.95;18.05;;;23.80;99.90;;;;;;4941923;29;20023;-87
2023/07/11 21:50:58;;;;;;;19.45;17.70;;;23.80;99.90;;;;;;4888274;29;20032;-89
2023/07/11 21:53:29;;;;;;;19.02;17.17;;;23.80;99.90;;;;;;4903757;29;20127;-88
2023/07/11 21:56:08;;;;;;;19.95;18.05;;;23.80;99.90;;;;;;4903934;29;20029;-87
2023/07/11 21:58:37;;;;;;;19.42;17.60;;;23.90;99.90;;;;;;4903558;29;20047;-86
2023/07/11 22:01:04;;;;;;;20.50;18.48;;;23.90;99.90;;;;;;4903286;29;20043;-86
2023/07/11 22:03:32;;;;;;;20.88;19.08;;;24.00;99.90;;;;;;4903526;29;20509;-87
2023/07/11 22:06:04;;;;;;;22.23;20.10;;;24.00;99.90;;;;;;4903490;29;20021;-87
2023/07/11 22:08:34;;;;;;;23.73;21.58;;;24.00;99.90;;;;;;4903406;29;20032;-87
2023/07/11 22:11:01;;;;;;;23.60;21.50;;;24.00;99.90;;;;;;4903485;29;20120;-87
2023/07/11 22:13:31;;;;;;;22.90;20.67;;;24.00;99.90;;;;;;4903859;29;20032;-87
2023/07/11 22:15:59;;;;;;;22.85;20.55;;;23.90;99.90;;;;;;4903661;29;20028;-88
2023/07/11 22:18:30;;;;;;;21.77;20.02;;;23.80;99.90;;;;;;4903629;29;20092;-87
2023/07/11 22:20:57;;;;;;;22.23;20.08;;;23.70;99.90;;;;;;4903738;29;20032;-88
2023/07/11 22:23:24;;;;;;;22.52;20.63;;;23.60;99.90;;;;;;4903784;29;20031;-88